createdAt,value
2019-01-30T00:00:51.496Z,99731.72
2019-01-30T00:03:22.770Z,99738.58
2019-01-30T00:05:54.087Z,99728.13
2019-01-30T00:08:25.516Z,99731.09
2019-01-30T00:10:59.865Z,99721.84
2019-01-30T00:13:31.097Z,99718.34
2019-01-30T00:16:02.358Z,99712.26
2019-01-30T00:18:33.609Z,99709.47
2019-01-30T00:21:04.943Z,99712.34
2019-01-30T00:23:36.227Z,99708.36
2019-01-30T00:26:07.481Z,99706.95
2019-01-30T00:28:38.744Z,99702.98
2019-01-30T00:31:09.967Z,99706.33
2019-01-30T00:33:41.271Z,99704.41
2019-01-30T00:36:12.541Z,99702.53
2019-01-30T00:38:43.813Z,99702.91
2019-01-30T00:41:15.150Z,99702.91
2019-01-30T00:43:46.426Z,99694.53
2019-01-30T00:46:17.654Z,99694.95
2019-01-30T00:48:48.829Z,99696.52
2019-01-30T00:51:20.169Z,99697.61
2019-01-30T00:53:51.392Z,99695.70
2019-01-30T00:56:22.583Z,99690.91
2019-01-30T00:58:53.924Z,99695.48
2019-01-30T01:01:25.212Z,99692.48
2019-01-30T01:03:56.633Z,99690.46
2019-01-30T01:06:27.890Z,99689.06
2019-01-30T01:08:59.140Z,99679.70
2019-01-30T01:11:30.546Z,99678.90
2019-01-30T01:14:01.765Z,99681.00
2019-01-30T01:16:33.040Z,99679.19
2019-01-30T01:19:04.346Z,99678.70
2019-01-30T01:21:35.550Z,99675.09
2019-01-30T01:24:06.871Z,99671.60
2019-01-30T01:26:38.054Z,99668.91
2019-01-30T01:29:09.288Z,99667.91
2019-01-30T01:31:40.529Z,99674.75
2019-01-30T01:34:11.872Z,99670.88
2019-01-30T01:36:43.087Z,99671.67
2019-01-30T01:39:14.289Z,99668.46
2019-01-30T01:41:45.538Z,99665.28
2019-01-30T01:44:16.678Z,99666.58
2019-01-30T01:46:48.043Z,99662.08
2019-01-30T01:49:19.339Z,99660.78
2019-01-30T01:51:50.865Z,99658.09
2019-01-30T01:54:22.172Z,99655.89
2019-01-30T01:56:53.412Z,99654.11
2019-01-30T01:59:24.690Z,99644.05
2019-01-30T02:01:56.095Z,99641.86
2019-01-30T02:04:27.376Z,99642.66
2019-01-30T02:06:58.715Z,99641.13
2019-01-30T02:09:30.023Z,99634.56
2019-01-30T02:12:01.370Z,99635.84
2019-01-30T02:14:32.724Z,99634.94
2019-01-30T02:17:04.041Z,99634.94
2019-01-30T02:19:35.261Z,99623.62
2019-01-30T02:22:06.559Z,99621.81
2019-01-30T02:24:37.790Z,99623.00
2019-01-30T02:27:08.985Z,99612.56
2019-01-30T02:29:40.208Z,99608.69
2019-01-30T02:32:11.477Z,99612.95
2019-01-30T02:34:42.804Z,99606.88
2019-01-30T02:37:13.965Z,99606.88
2019-01-30T02:39:45.243Z,99605.19
2019-01-30T02:42:16.451Z,99602.89
2019-01-30T02:44:47.758Z,99611.16
2019-01-30T02:47:19.013Z,99608.44
2019-01-30T02:49:50.269Z,99607.67
2019-01-30T02:52:21.542Z,99603.69
2019-01-30T02:54:52.746Z,99607.05
2019-01-30T02:57:23.973Z,99607.47
2019-01-30T02:59:55.217Z,99604.36
2019-01-30T03:02:26.807Z,99606.45
2019-01-30T03:04:58.072Z,99604.25
2019-01-30T03:07:29.373Z,99601.15
2019-01-30T03:10:00.478Z,99597.69
2019-01-30T03:12:31.673Z,99596.30
2019-01-30T03:15:02.869Z,99592.42
2019-01-30T03:17:34.144Z,99591.90
2019-01-30T03:20:07.153Z,99586.62
2019-01-30T03:22:38.379Z,99585.72
2019-01-30T03:25:10.830Z,99580.06
2019-01-30T03:27:42.094Z,99571.79
2019-01-30T03:30:19.108Z,99573.08
2019-01-30T03:32:50.278Z,99574.66
2019-01-30T03:35:21.735Z,99578.04
2019-01-30T03:37:53.039Z,99571.48
2019-01-30T03:40:24.859Z,99570.95
2019-01-30T03:42:56.125Z,99573.44
2019-01-30T03:45:27.379Z,99566.06
2019-01-30T03:47:58.566Z,99569.84
2019-01-30T03:50:29.840Z,99573.23
2019-01-30T03:53:01.150Z,99570.64
2019-01-30T03:55:32.330Z,99568.34
2019-01-30T03:58:03.605Z,99567.05
2019-01-30T04:00:34.844Z,99565.23
2019-01-30T04:03:06.189Z,99564.75
2019-01-30T04:05:37.366Z,99563.35
2019-01-30T04:08:08.632Z,99552.11
2019-01-30T04:10:39.863Z,99554.70
2019-01-30T04:13:11.089Z,99552.11
2019-01-30T04:15:42.377Z,99549.04
2019-01-30T04:18:13.641Z,99549.42
2019-01-30T04:20:44.856Z,99546.35
2019-01-30T04:23:16.078Z,99532.92
2019-01-30T04:25:47.325Z,99525.97
2019-01-30T04:28:18.547Z,99532.81
2019-01-30T04:30:49.732Z,99526.73
2019-01-30T04:33:20.949Z,99518.09
2019-01-30T04:35:52.191Z,99511.14
2019-01-30T04:38:23.408Z,99508.17
2019-01-30T04:40:54.614Z,99505.98
2019-01-30T04:43:25.812Z,99508.07
2019-01-30T04:45:57.074Z,99514.91
2019-01-30T04:48:28.308Z,99519.17
2019-01-30T04:50:59.637Z,99514.81
2019-01-30T04:53:30.980Z,99513.09
2019-01-30T04:56:03.014Z,99508.63
2019-01-30T04:58:34.390Z,99503.95
2019-01-30T05:01:05.982Z,99509.92
2019-01-30T05:03:37.479Z,99507.73
2019-01-30T05:06:09.744Z,99504.77
2019-01-30T05:08:40.959Z,99506.44
2019-01-30T05:11:12.140Z,99503.75
2019-01-30T05:13:43.417Z,99502.36
2019-01-30T05:16:14.621Z,99506.72
2019-01-30T05:18:45.867Z,99502.36
2019-01-30T05:21:17.262Z,99493.18
2019-01-30T05:23:48.455Z,99492.31
2019-01-30T05:26:19.716Z,99492.31
2019-01-30T05:28:51.238Z,99493.49
2019-01-30T05:31:23.451Z,99493.98
2019-01-30T05:33:54.715Z,99488.33
2019-01-30T05:36:25.887Z,99485.75
2019-01-30T05:38:58.512Z,99486.52
2019-01-30T05:41:29.770Z,99475.28
2019-01-30T05:44:00.963Z,99476.19
2019-01-30T05:46:32.268Z,99475.28
2019-01-30T05:49:03.489Z,99469.63
2019-01-30T05:51:34.754Z,99468.45
2019-01-30T05:54:06.047Z,99465.86
2019-01-30T05:56:37.292Z,99464.47
2019-01-30T05:59:08.508Z,99469.35
2019-01-30T06:01:39.767Z,99471.94
2019-01-30T06:04:11.029Z,99480.06
2019-01-30T06:06:42.248Z,99482.75
2019-01-30T06:09:13.546Z,99484.04
2019-01-30T06:11:44.756Z,99476.19
2019-01-30T06:14:15.964Z,99475.42
2019-01-30T06:16:47.252Z,99485.23
2019-01-30T06:19:18.410Z,99484.32
2019-01-30T06:21:49.670Z,99477.77
2019-01-30T06:24:20.838Z,99483.34
2019-01-30T06:26:52.282Z,99472.49
2019-01-30T06:29:23.519Z,99473.89
2019-01-30T06:31:54.757Z,99469.25
2019-01-30T06:34:25.904Z,99466.67
2019-01-30T06:36:57.135Z,99468.45
2019-01-30T06:39:28.450Z,99472.03
2019-01-30T06:41:59.664Z,99465.97
2019-01-30T06:44:30.907Z,99464.29
2019-01-30T06:47:02.159Z,99470.36
2019-01-30T06:49:33.369Z,99458.74
2019-01-30T06:52:04.620Z,99466.20
2019-01-30T06:54:35.957Z,99460.77
2019-01-30T06:57:07.413Z,99459.05
2019-01-30T06:59:38.659Z,99460.06
2019-01-30T07:02:10.344Z,99456.81
2019-01-30T07:04:41.634Z,99451.26
2019-01-30T07:07:12.832Z,99453.03
2019-01-30T07:09:44.126Z,99455.83
2019-01-30T07:12:15.308Z,99453.38
2019-01-30T07:14:46.495Z,99453.86
2019-01-30T07:17:17.768Z,99452.67
2019-01-30T07:19:48.936Z,99447.22
2019-01-30T07:22:20.179Z,99448.23
2019-01-30T07:24:51.449Z,99446.14
2019-01-30T07:27:22.646Z,99438.91
2019-01-30T07:29:53.930Z,99443.79
2019-01-30T07:32:25.201Z,99440.02
2019-01-30T07:34:56.413Z,99442.70
2019-01-30T07:37:27.567Z,99436.34
2019-01-30T07:39:58.788Z,99435.15
2019-01-30T07:42:31.064Z,99432.00
2019-01-30T07:45:02.255Z,99435.10
2019-01-30T07:47:33.650Z,99440.47
2019-01-30T07:50:05.856Z,99432.44
2019-01-30T07:52:37.056Z,99435.22
2019-01-30T07:55:10.095Z,99440.48
2019-01-30T07:57:41.474Z,99438.03
2019-01-30T08:00:17.841Z,99438.13
2019-01-30T08:02:53.286Z,99437.32
2019-01-30T08:05:22.700Z,99440.53
2019-01-30T08:07:55.171Z,99434.65
2019-01-30T08:10:26.359Z,99438.66
2019-01-30T08:12:57.673Z,99441.44
2019-01-30T08:15:28.898Z,99433.30
2019-01-30T08:18:00.048Z,99437.90
2019-01-30T08:20:31.236Z,99431.92
2019-01-30T08:23:02.567Z,99436.41
2019-01-30T08:25:34.138Z,99433.22
2019-01-30T08:28:05.875Z,99437.81
2019-01-30T08:30:38.220Z,99425.11
2019-01-30T08:33:09.546Z,99415.45
2019-01-30T08:35:40.938Z,99426.50
2019-01-30T08:38:12.273Z,99425.92
2019-01-30T08:40:43.503Z,99419.66
2019-01-30T08:43:14.764Z,99416.78
2019-01-30T08:45:45.967Z,99429.52
2019-01-30T08:48:17.486Z,99421.08
2019-01-30T08:50:48.716Z,99427.34
2019-01-30T08:53:20.036Z,99427.54
2019-01-30T08:55:51.191Z,99428.92
2019-01-30T08:58:22.481Z,99426.17
2019-01-30T09:00:53.702Z,99427.75
2019-01-30T09:03:24.883Z,99428.37
2019-01-30T09:05:56.138Z,99426.45
2019-01-30T09:08:27.334Z,99433.62
2019-01-30T09:10:58.561Z,99429.68
2019-01-30T09:13:30.040Z,99429.57
2019-01-30T09:16:01.248Z,99425.20
2019-01-30T09:18:32.668Z,99428.48
2019-01-30T09:21:03.878Z,99425.27
2019-01-30T09:23:35.196Z,99432.97
2019-01-30T09:26:06.582Z,99421.98
2019-01-30T09:28:37.838Z,99423.20
2019-01-30T09:31:09.227Z,99420.41
2019-01-30T09:33:40.677Z,99418.00
2019-01-30T09:36:11.907Z,99410.53
2019-01-30T09:38:44.113Z,99415.52
2019-01-30T09:41:17.074Z,99423.16
2019-01-30T09:43:48.441Z,99412.59
2019-01-30T09:46:19.660Z,99415.06
2019-01-30T09:48:50.796Z,99421.42
2019-01-30T09:51:22.028Z,99416.94
2019-01-30T09:53:53.285Z,99413.27
2019-01-30T09:56:24.637Z,99414.35
2019-01-30T09:58:56.909Z,99411.55
2019-01-30T10:01:28.122Z,99413.92
2019-01-30T10:03:59.491Z,99409.83
2019-01-30T10:06:30.731Z,99398.86
2019-01-30T10:09:01.946Z,99393.84
2019-01-30T10:11:41.671Z,99390.95
2019-01-30T10:14:13.068Z,99395.31
2019-01-30T10:16:44.313Z,99384.17
2019-01-30T10:19:15.503Z,99382.06
2019-01-30T10:21:46.807Z,99384.34
2019-01-30T10:24:17.966Z,99377.08
2019-01-30T10:26:49.153Z,99383.05
2019-01-30T10:29:20.464Z,99375.83
2019-01-30T10:31:51.639Z,99361.78
2019-01-30T10:34:22.976Z,99351.41
2019-01-30T10:36:54.219Z,99351.41
2019-01-30T10:39:25.498Z,99356.72
2019-01-30T10:41:56.802Z,99356.92
2019-01-30T10:44:28.068Z,99355.80
2019-01-30T10:46:59.298Z,99349.09
2019-01-30T10:49:31.110Z,99354.44
2019-01-30T10:52:02.430Z,99354.73
2019-01-30T10:54:33.694Z,99354.73
2019-01-30T10:57:04.937Z,99352.73
2019-01-30T10:59:36.163Z,99360.45
2019-01-30T11:02:07.366Z,99354.34
2019-01-30T11:04:38.574Z,99348.11
2019-01-30T11:07:09.769Z,99348.95
2019-01-30T11:09:41.015Z,99337.55
2019-01-30T11:12:12.475Z,99322.34
2019-01-30T11:14:43.712Z,99321.80
2019-01-30T11:17:14.986Z,99319.22
2019-01-30T11:19:46.219Z,99297.19
2019-01-30T11:22:17.406Z,99306.28
2019-01-30T11:24:48.728Z,99296.95
2019-01-30T11:27:19.922Z,99302.84
2019-01-30T11:29:51.163Z,99287.10
2019-01-30T11:32:22.451Z,99295.95
2019-01-30T11:34:53.697Z,99296.10
2019-01-30T11:37:27.226Z,99299.84
2019-01-30T11:39:58.489Z,99299.84
2019-01-30T11:42:29.742Z,99285.64
2019-01-30T11:45:00.921Z,99298.08
2019-01-30T11:47:32.099Z,99286.27
2019-01-30T11:50:03.334Z,99283.59
2019-01-30T11:52:34.647Z,99282.62
2019-01-30T11:55:06.831Z,99282.73
2019-01-30T11:57:38.093Z,99282.73
2019-01-30T12:00:13.403Z,99285.72
2019-01-30T12:02:47.863Z,99293.13
2019-01-30T12:05:17.803Z,99276.69
2019-01-30T12:07:49.005Z,99276.29
2019-01-30T12:10:20.401Z,99280.19
2019-01-30T12:12:51.575Z,99272.31
2019-01-30T12:15:22.970Z,99283.26
2019-01-30T12:17:55.632Z,99278.78
2019-01-30T12:20:28.095Z,99282.67
2019-01-30T12:22:59.296Z,99264.61
2019-01-30T12:25:30.424Z,99264.61
2019-01-30T12:28:01.717Z,99275.39
2019-01-30T12:30:32.924Z,99275.39
2019-01-30T12:33:04.193Z,99273.30
2019-01-30T12:35:35.369Z,99273.30
2019-01-30T12:38:06.775Z,99274.83
2019-01-30T12:40:38.071Z,99261.71
2019-01-30T12:43:09.414Z,99264.54
2019-01-30T12:45:41.626Z,99263.98
2019-01-30T12:48:12.811Z,99260.27
2019-01-30T12:50:44.110Z,99255.86
2019-01-30T12:53:15.359Z,99246.60
2019-01-30T12:55:46.568Z,99253.03
2019-01-30T12:58:17.862Z,99245.39
2019-01-30T13:00:49.151Z,99243.92
2019-01-30T13:03:20.362Z,99239.70
2019-01-30T13:05:51.566Z,99238.33
2019-01-30T13:08:22.855Z,99246.13
2019-01-30T13:10:54.163Z,99244.64
2019-01-30T13:13:25.417Z,99240.10
2019-01-30T13:15:56.639Z,99240.44
2019-01-30T13:18:27.933Z,99249.82
2019-01-30T13:20:59.107Z,99235.38
2019-01-30T13:23:30.361Z,99242.61
2019-01-30T13:26:01.561Z,99236.17
2019-01-30T13:28:32.764Z,99234.05
2019-01-30T13:31:03.952Z,99229.82
2019-01-30T13:33:35.175Z,99224.63
2019-01-30T13:36:06.441Z,99230.00
2019-01-30T13:38:37.687Z,99226.57
2019-01-30T13:41:09.056Z,99229.17
2019-01-30T13:43:41.330Z,99224.44
2019-01-30T13:46:12.537Z,99235.67
2019-01-30T13:48:43.741Z,99230.22
2019-01-30T13:51:15.007Z,99237.95
2019-01-30T13:53:46.311Z,99225.13
2019-01-30T13:56:17.512Z,99227.26
2019-01-30T13:58:48.839Z,99222.85
2019-01-30T14:01:20.021Z,99218.41
2019-01-30T14:03:51.226Z,99220.69
2019-01-30T14:06:22.488Z,99229.45
2019-01-30T14:08:53.909Z,99229.23
2019-01-30T14:11:27.896Z,99215.19
2019-01-30T14:13:59.686Z,99230.38
2019-01-30T14:16:31.109Z,99228.42
2019-01-30T14:19:02.424Z,99228.75
2019-01-30T14:21:33.728Z,99222.11
2019-01-30T14:24:06.265Z,99229.24
2019-01-30T14:26:37.626Z,99226.63
2019-01-30T14:29:08.875Z,99226.63
2019-01-30T14:31:40.131Z,99218.69
2019-01-30T14:34:11.380Z,99221.61
2019-01-30T14:36:42.592Z,99220.55
2019-01-30T14:39:13.755Z,99212.03
2019-01-30T14:41:45.027Z,99219.55
2019-01-30T14:44:16.347Z,99215.83
2019-01-30T14:46:47.642Z,99211.38
2019-01-30T14:49:18.872Z,99210.88
2019-01-30T14:51:50.102Z,99206.83
2019-01-30T14:54:21.307Z,99196.50
2019-01-30T14:56:52.639Z,99212.66
2019-01-30T14:59:24.004Z,99204.87
2019-01-30T15:01:55.278Z,99203.09
2019-01-30T15:04:26.613Z,99190.17
2019-01-30T15:06:57.940Z,99198.55
2019-01-30T15:09:30.145Z,99198.55
2019-01-30T15:12:01.347Z,99197.56
2019-01-30T15:14:32.551Z,99191.64
2019-01-30T15:17:03.811Z,99196.91
2019-01-30T15:19:35.023Z,99178.95
2019-01-30T15:22:06.299Z,99191.21
2019-01-30T15:24:37.553Z,99191.21
2019-01-30T15:27:08.895Z,99187.80
2019-01-30T15:29:40.176Z,99191.92
2019-01-30T15:32:12.431Z,99191.92
2019-01-30T15:34:43.772Z,99196.95
2019-01-30T15:37:14.947Z,99199.16
2019-01-30T15:39:46.304Z,99207.66
2019-01-30T15:42:17.561Z,99206.87
2019-01-30T15:44:48.725Z,99206.87
2019-01-30T15:47:20.255Z,99215.20
2019-01-30T15:49:51.738Z,99215.91
2019-01-30T15:52:22.965Z,99215.91
2019-01-30T15:54:54.268Z,99223.22
2019-01-30T15:57:25.631Z,99205.61
2019-01-30T15:59:57.090Z,99215.25
2019-01-30T16:02:28.500Z,99212.18
2019-01-30T16:04:59.721Z,99216.39
2019-01-30T16:07:30.996Z,99222.48
2019-01-30T16:10:02.498Z,99222.05
2019-01-30T16:12:34.181Z,99217.76
2019-01-30T16:15:07.788Z,99217.76
2019-01-30T16:17:39.043Z,99221.81
2019-01-30T16:20:10.734Z,99215.91
2019-01-30T16:22:42.089Z,99218.59
2019-01-30T16:25:15.759Z,99219.17
2019-01-30T16:27:47.278Z,99219.25
2019-01-30T16:30:20.429Z,99219.25
2019-01-30T16:32:51.727Z,99218.27
2019-01-30T16:35:25.844Z,99218.27
2019-01-30T16:37:57.496Z,99224.76
2019-01-30T16:40:29.347Z,99223.46
2019-01-30T16:43:00.794Z,99221.38
2019-01-30T16:45:32.187Z,99221.38
2019-01-30T16:48:03.562Z,99221.50
2019-01-30T16:50:34.796Z,99221.50
2019-01-30T16:53:07.885Z,99223.97
2019-01-30T16:55:39.072Z,99210.64
2019-01-30T16:58:11.041Z,99222.56
2019-01-30T17:00:42.401Z,99230.77
2019-01-30T17:03:13.621Z,99233.45
2019-01-30T17:05:44.958Z,99227.36
2019-01-30T17:08:16.700Z,99226.45
2019-01-30T17:10:47.948Z,99224.68
2019-01-30T17:13:19.155Z,99233.37
2019-01-30T17:15:50.387Z,99230.27
2019-01-30T17:18:24.175Z,99225.98
2019-01-30T17:20:54.543Z,99224.76
2019-01-30T17:23:25.788Z,99212.41
2019-01-30T17:25:57.108Z,99224.84
2019-01-30T17:28:28.348Z,99224.84
2019-01-30T17:31:12.228Z,99219.25
2019-01-30T17:33:43.510Z,99217.95
2019-01-30T17:36:18.720Z,99220.55
2019-01-30T17:38:47.616Z,99221.77
2019-01-30T17:41:18.913Z,99213.91
2019-01-30T17:43:50.386Z,99221.58
2019-01-30T17:46:21.599Z,99221.58
2019-01-30T17:48:53.299Z,99223.30
2019-01-30T17:51:25.512Z,99228.49
2019-01-30T17:53:56.752Z,99225.00
2019-01-30T17:56:28.076Z,99228.49
2019-01-30T17:58:59.492Z,99224.68
2019-01-30T18:01:30.671Z,99222.56
2019-01-30T18:04:01.901Z,99218.98
2019-01-30T18:06:33.308Z,99219.88
2019-01-30T18:09:07.865Z,99223.97
2019-01-30T18:11:39.381Z,99214.38
2019-01-30T18:14:10.825Z,99214.89
2019-01-30T18:16:42.028Z,99197.16
2019-01-30T18:19:13.408Z,99197.16
2019-01-30T18:21:44.737Z,99209.03
2019-01-30T18:24:16.797Z,99209.03
2019-01-30T18:26:48.372Z,99191.50
2019-01-30T18:29:19.750Z,99191.50
2019-01-30T18:31:51.085Z,99205.70
2019-01-30T18:34:22.408Z,99197.52
2019-01-30T18:36:53.890Z,99200.19
2019-01-30T18:39:25.412Z,99203.29
2019-01-30T18:41:57.461Z,99208.95
2019-01-30T18:44:29.129Z,99212.45
2019-01-30T18:47:00.948Z,99212.38
2019-01-30T18:49:32.308Z,99215.36
2019-01-30T18:52:06.016Z,99204.08
2019-01-30T18:54:37.369Z,99196.53
2019-01-30T18:57:08.611Z,99201.48
2019-01-30T19:03:24.066Z,99203.45
2019-01-30T19:05:55.328Z,99193.63
2019-01-30T19:08:26.623Z,99193.63
2019-01-30T19:10:57.874Z,99200.77
2019-01-30T19:13:29.125Z,99193.15
2019-01-30T19:16:00.392Z,99193.15
2019-01-30T19:18:31.679Z,99188.03
2019-01-30T19:21:03.291Z,99188.03
2019-01-30T19:23:35.234Z,99199.63
2019-01-30T19:26:06.556Z,99196.25
2019-01-30T19:28:37.747Z,99194.13
2019-01-30T19:31:08.975Z,99191.53
2019-01-30T19:33:40.257Z,99191.45
2019-01-30T19:36:11.752Z,99191.14
2019-01-30T19:38:42.990Z,99196.33
2019-01-30T19:41:14.254Z,99197.44
2019-01-30T19:43:46.630Z,99199.95
2019-01-30T19:46:18.266Z,99202.07
2019-01-30T19:48:49.468Z,99196.38
2019-01-30T19:51:20.693Z,99200.19
2019-01-30T19:53:52.013Z,99207.11
2019-01-30T19:56:23.337Z,99210.17
2019-01-30T19:58:54.630Z,99205.88
2019-01-30T20:01:35.996Z,99197.91
2019-01-30T20:03:59.967Z,99200.77
2019-01-30T20:06:31.219Z,99194.45
2019-01-30T20:09:04.580Z,99198.97
2019-01-30T20:11:37.570Z,99202.07
2019-01-30T20:14:08.953Z,99207.34
2019-01-30T20:16:40.341Z,99202.15
2019-01-30T20:19:11.622Z,99199.48
2019-01-30T20:21:42.859Z,99199.48
2019-01-30T20:24:14.195Z,99193.97
2019-01-30T20:26:45.637Z,99191.77
2019-01-30T20:29:16.849Z,99191.77
2019-01-30T20:31:48.106Z,99201.13
2019-01-30T20:34:20.332Z,99206.78
2019-01-30T20:36:51.629Z,99210.67
2019-01-30T20:39:22.762Z,99207.69
2019-01-30T20:41:54.041Z,99209.85
2019-01-30T20:44:25.532Z,99200.30
2019-01-30T20:46:56.836Z,99204.59
2019-01-30T20:49:28.151Z,99208.91
2019-01-30T20:52:00.497Z,99208.91
2019-01-30T20:54:31.723Z,99209.70
2019-01-30T20:57:03.272Z,99210.60
2019-01-30T20:59:34.512Z,99213.12
2019-01-30T21:02:05.993Z,99211.39
2019-01-30T21:04:37.346Z,99212.61
2019-01-30T21:07:08.561Z,99206.75
2019-01-30T21:09:39.827Z,99215.13
2019-01-30T21:12:11.136Z,99221.69
2019-01-30T21:14:42.652Z,99212.14
2019-01-30T21:17:14.847Z,99212.14
2019-01-30T21:19:49.938Z,99213.52
2019-01-30T21:22:21.305Z,99202.23
2019-01-30T21:24:52.502Z,99210.52
2019-01-30T21:27:23.776Z,99207.92
2019-01-30T21:29:55.000Z,99212.69
2019-01-30T21:32:26.273Z,99211.81
2019-01-30T21:34:57.417Z,99210.09
2019-01-30T21:37:28.707Z,99215.71
2019-01-30T21:40:00.020Z,99212.69
2019-01-30T21:42:31.333Z,99218.30
2019-01-30T21:45:03.141Z,99218.30
2019-01-30T21:47:35.495Z,99222.98
2019-01-30T21:50:07.413Z,99223.50
2019-01-30T21:52:38.841Z,99217.80
2019-01-30T21:55:12.693Z,99218.19
2019-01-30T21:57:43.910Z,99220.79
2019-01-30T22:00:23.782Z,99217.41
2019-01-30T22:02:55.082Z,99220.31
2019-01-30T22:05:26.734Z,99219.41
2019-01-30T22:08:00.997Z,99220.70
2019-01-30T22:10:31.064Z,99209.45
2019-01-30T22:13:02.286Z,99216.34
2019-01-30T22:15:34.705Z,99216.34
2019-01-30T22:18:06.708Z,99213.75
2019-01-30T22:20:37.866Z,99219.41
2019-01-30T22:23:09.226Z,99218.55
2019-01-30T22:25:40.481Z,99225.90
2019-01-30T22:28:11.791Z,99224.13
2019-01-30T22:30:43.160Z,99223.62
2019-01-30T22:33:14.387Z,99219.41
2019-01-30T22:35:45.542Z,99219.41
2019-01-30T22:38:16.760Z,99217.72
2019-01-30T22:40:47.944Z,99226.41
2019-01-30T22:43:19.216Z,99218.86
2019-01-30T22:45:50.854Z,99224.80
2019-01-30T22:48:22.107Z,99227.47
2019-01-30T22:50:53.341Z,99229.23
2019-01-30T22:53:24.625Z,99233.64
2019-01-30T22:55:58.213Z,99230.73
2019-01-30T22:58:29.423Z,99232.11
2019-01-30T23:01:26.737Z,99232.11
2019-01-30T23:04:42.283Z,99223.26
2019-01-30T23:08:22.602Z,99223.26
2019-01-30T23:11:14.491Z,99238.20
2019-01-30T23:14:31.305Z,99238.20
2019-01-30T23:17:35.824Z,99240.36
2019-01-30T23:20:22.636Z,99239.26
2019-01-30T23:23:43.474Z,99239.26
2019-01-30T23:26:21.547Z,99239.26
2019-01-30T23:29:29.064Z,99239.41
2019-01-30T23:32:32.118Z,99239.41
2019-01-30T23:35:32.789Z,99239.89
2019-01-30T23:38:53.928Z,99243.39
2019-01-30T23:41:55.145Z,99234.54
2019-01-30T23:44:53.902Z,99251.33
2019-01-30T23:48:11.576Z,99244.84
2019-01-30T23:51:42.000Z,99251.02
2019-01-30T23:54:40.261Z,99252.31
2019-01-30T23:57:50.338Z,99255.73
